createdAt,value
2023-03-31T00:02:41.450Z,12.17
2023-03-31T00:07:43.940Z,12.12
2023-03-31T00:12:45.970Z,12.10
2023-03-31T00:17:47.749Z,11.97
2023-03-31T00:22:49.359Z,12.10
2023-03-31T00:27:52.721Z,12.20
2023-03-31T00:32:54.393Z,12.04
2023-03-31T00:37:57.920Z,12.16
2023-03-31T00:42:59.596Z,12.23
2023-03-31T00:48:10.448Z,12.17
2023-03-31T00:53:15.957Z,12.08
2023-03-31T00:58:20.293Z,12.19
2023-03-31T01:03:25.222Z,12.15
2023-03-31T01:08:27.690Z,12.18
2023-03-31T01:13:30.413Z,12.11
2023-03-31T01:18:34.987Z,12.18
2023-03-31T01:23:42.018Z,12.21
2023-03-31T01:29:02.839Z,12.09
2023-03-31T01:34:11.796Z,12.11
2023-03-31T01:39:50.341Z,12.15
2023-03-31T01:45:12.250Z,11.88
2023-03-31T01:50:46.711Z,12.01
2023-03-31T01:56:14.296Z,11.94
2023-03-31T02:01:21.115Z,12.10
2023-03-31T02:06:27.183Z,12.10
2023-03-31T02:11:30.195Z,11.87
2023-03-31T02:16:33.515Z,11.91
2023-03-31T02:21:38.714Z,11.93
2023-03-31T02:26:46.451Z,11.94
2023-03-31T02:31:55.178Z,11.85
2023-03-31T02:36:56.874Z,11.59
2023-03-31T02:41:58.660Z,11.72
2023-03-31T02:47:00.781Z,11.76
2023-03-31T02:52:08.364Z,11.62
2023-03-31T02:57:19.365Z,11.70
2023-03-31T03:02:36.955Z,11.65
2023-03-31T03:07:56.316Z,11.60
2023-03-31T03:13:18.271Z,11.61
2023-03-31T03:18:19.870Z,11.56
2023-03-31T03:23:22.659Z,11.54
2023-03-31T03:28:24.598Z,11.47
2023-03-31T03:33:26.231Z,11.46
2023-03-31T03:38:27.871Z,11.54
2023-03-31T03:43:29.473Z,11.52
2023-03-31T03:48:31.064Z,11.56
2023-03-31T03:53:32.796Z,11.49
2023-03-31T03:58:34.529Z,11.61
2023-03-31T04:03:36.151Z,11.63
2023-03-31T04:08:37.761Z,11.59
2023-03-31T04:13:39.337Z,11.56
2023-03-31T04:18:43.627Z,11.53
2023-03-31T04:23:47.878Z,11.45
2023-03-31T04:28:50.717Z,11.47
2023-03-31T04:33:53.441Z,11.47
2023-03-31T04:38:55.135Z,11.52
2023-03-31T04:43:56.813Z,11.53
2023-03-31T04:48:59.249Z,11.61
2023-03-31T04:54:00.922Z,11.63
2023-03-31T04:59:03.965Z,11.72
2023-03-31T05:04:05.986Z,11.75
2023-03-31T05:09:09.620Z,11.79
2023-03-31T05:14:11.272Z,11.72
2023-03-31T05:19:12.878Z,11.75
2023-03-31T05:24:14.845Z,11.72
2023-03-31T05:29:16.796Z,11.70
2023-03-31T05:34:18.436Z,11.77
2023-03-31T05:39:20.088Z,11.73
2023-03-31T05:44:21.697Z,11.82
2023-03-31T05:49:23.283Z,12.02
2023-03-31T05:54:24.964Z,12.21
2023-03-31T05:59:26.732Z,12.35
2023-03-31T06:04:28.588Z,12.32
2023-03-31T06:09:30.420Z,12.52
2023-03-31T06:14:32.009Z,12.51
2023-03-31T06:19:33.626Z,12.55
2023-03-31T06:24:35.385Z,12.59
2023-03-31T06:29:37.000Z,12.64
2023-03-31T06:34:38.654Z,12.81
2023-03-31T06:39:40.407Z,12.70
2023-03-31T06:44:42.014Z,12.82
2023-03-31T06:49:43.642Z,13.10
2023-03-31T06:54:45.671Z,13.40
2023-03-31T06:59:47.438Z,13.51
2023-03-31T07:04:49.004Z,13.54
2023-03-31T07:09:50.618Z,13.62
2023-03-31T07:14:52.235Z,13.60
2023-03-31T07:19:53.874Z,13.61
2023-03-31T07:24:55.561Z,13.58
2023-03-31T07:29:57.198Z,13.63
2023-03-31T07:34:59.245Z,13.71
2023-03-31T07:40:00.917Z,13.96
2023-03-31T07:45:06.230Z,14.16
2023-03-31T07:50:08.448Z,14.42
2023-03-31T07:55:10.510Z,14.56
2023-03-31T08:00:12.832Z,14.63
2023-03-31T08:05:16.389Z,14.59
2023-03-31T08:10:24.935Z,14.56
2023-03-31T08:15:26.629Z,14.52
2023-03-31T08:20:28.240Z,14.31
2023-03-31T08:25:29.835Z,14.40
2023-03-31T08:30:31.413Z,14.33
2023-03-31T08:35:33.334Z,14.34
2023-03-31T08:40:34.997Z,14.36
2023-03-31T08:45:40.243Z,14.31
2023-03-31T08:50:47.780Z,14.28
2023-03-31T08:55:51.244Z,14.16
2023-03-31T09:01:14.165Z,14.15
2023-03-31T09:06:21.144Z,14.23
2023-03-31T09:11:36.334Z,14.05
2023-03-31T09:16:56.222Z,13.98
2023-03-31T09:22:00.429Z,13.88
2023-03-31T09:27:12.255Z,13.88
2023-03-31T09:32:18.033Z,13.90
2023-03-31T09:37:19.802Z,13.87
2023-03-31T09:42:21.422Z,13.93
2023-03-31T09:47:32.704Z,13.99
2023-03-31T09:52:53.390Z,13.91
2023-03-31T09:57:54.976Z,13.90
2023-03-31T10:02:57.781Z,13.90
2023-03-31T10:08:14.407Z,13.82
2023-03-31T10:13:48.251Z,13.86
2023-03-31T10:18:49.979Z,13.90
2023-03-31T10:23:52.561Z,13.80
2023-03-31T10:28:55.370Z,13.79
2023-03-31T10:33:58.403Z,13.70
2023-03-31T10:39:00.147Z,13.85
2023-03-31T10:44:04.086Z,13.71
2023-03-31T10:49:24.382Z,13.72
2023-03-31T10:54:26.769Z,13.72
2023-03-31T10:59:51.817Z,13.87
2023-03-31T11:04:59.082Z,13.86
2023-03-31T11:10:28.058Z,13.66
2023-03-31T11:15:43.021Z,13.70
2023-03-31T11:21:04.022Z,13.68
2023-03-31T11:26:26.010Z,13.72
2023-03-31T11:31:34.018Z,13.70
2023-03-31T11:36:50.566Z,13.44
2023-03-31T11:42:01.415Z,13.61
2023-03-31T11:47:13.652Z,13.46
2023-03-31T11:52:17.258Z,13.41
2023-03-31T11:57:40.632Z,13.30
2023-03-31T12:03:19.829Z,13.07
2023-03-31T12:08:41.928Z,13.27
2023-03-31T12:13:56.253Z,13.14
2023-03-31T12:19:03.173Z,13.25
2023-03-31T12:24:06.513Z,13.26
2023-03-31T12:29:21.090Z,13.23
2023-03-31T12:34:24.682Z,13.27
2023-03-31T12:39:47.370Z,13.22
2023-03-31T12:45:24.154Z,13.17
2023-03-31T12:50:28.640Z,13.16
2023-03-31T12:55:37.486Z,13.03
2023-03-31T13:00:59.175Z,12.94
2023-03-31T13:06:01.641Z,12.94
2023-03-31T13:11:03.296Z,12.84
2023-03-31T13:16:05.229Z,12.94
2023-03-31T13:21:08.340Z,12.88
2023-03-31T13:26:32.597Z,12.84
2023-03-31T13:32:00.430Z,12.85
2023-03-31T13:37:29.069Z,12.89
2023-03-31T13:42:33.361Z,13.03
2023-03-31T13:47:41.386Z,13.27
2023-03-31T13:52:45.886Z,13.17
2023-03-31T13:58:05.393Z,13.09
2023-03-31T14:03:41.544Z,13.13
2023-03-31T14:08:58.126Z,13.09
2023-03-31T14:14:06.716Z,13.14
2023-03-31T14:19:32.507Z,13.26
2023-03-31T14:24:41.272Z,13.33
2023-03-31T14:29:58.057Z,13.57
2023-03-31T14:34:59.852Z,13.74
2023-03-31T14:40:01.844Z,13.77
2023-03-31T14:45:06.197Z,13.80
2023-03-31T14:50:15.408Z,14.11
2023-03-31T14:55:18.710Z,13.90
2023-03-31T15:00:29.787Z,13.69
2023-03-31T15:05:33.389Z,13.55
2023-03-31T15:10:45.595Z,13.55
2023-03-31T15:15:47.251Z,13.61
2023-03-31T15:20:48.910Z,13.70
2023-03-31T15:26:08.132Z,13.52
2023-03-31T15:31:10.827Z,13.54
2023-03-31T15:36:12.903Z,13.51
2023-03-31T15:41:16.904Z,13.47
2023-03-31T15:46:40.738Z,13.39
2023-03-31T15:51:42.328Z,13.30
2023-03-31T15:56:45.601Z,13.32
2023-03-31T16:01:49.491Z,13.35
2023-03-31T16:06:57.977Z,13.51
2023-03-31T16:12:02.855Z,13.57
2023-03-31T16:17:09.044Z,13.48
2023-03-31T16:22:15.746Z,13.63
2023-03-31T16:27:18.416Z,13.40
2023-03-31T16:32:20.943Z,13.33
2023-03-31T16:37:23.145Z,13.36
2023-03-31T16:42:24.993Z,13.39
2023-03-31T16:47:35.258Z,13.58
2023-03-31T16:52:38.045Z,13.47
2023-03-31T16:57:39.643Z,13.35
2023-03-31T17:02:41.619Z,13.17
2023-03-31T17:07:43.369Z,13.11
2023-03-31T17:12:45.024Z,13.00
2023-03-31T17:17:47.737Z,12.85
2023-03-31T17:22:49.473Z,12.88
2023-03-31T17:27:51.103Z,12.75
2023-03-31T17:32:52.835Z,12.61
2023-03-31T17:37:55.247Z,12.61
2023-03-31T17:42:56.870Z,12.58
2023-03-31T17:47:59.258Z,12.52
2023-03-31T17:53:01.438Z,12.48
2023-03-31T17:58:03.436Z,12.33
2023-03-31T18:03:05.260Z,12.30
2023-03-31T18:08:07.256Z,12.52
2023-03-31T18:13:09.778Z,12.52
2023-03-31T18:18:11.560Z,12.47
2023-03-31T18:23:13.288Z,12.48
2023-03-31T18:28:16.320Z,12.48
2023-03-31T18:33:17.996Z,12.45
2023-03-31T18:38:19.818Z,12.48
2023-03-31T18:43:25.168Z,12.47
2023-03-31T18:48:27.099Z,12.43
2023-03-31T18:53:30.083Z,12.44
2023-03-31T18:58:31.829Z,12.45
2023-03-31T19:03:33.535Z,12.41
2023-03-31T19:08:35.271Z,12.43
2023-03-31T19:13:38.156Z,12.36
2023-03-31T19:18:39.850Z,12.33
2023-03-31T19:23:41.515Z,12.23
2023-03-31T19:28:43.168Z,12.33
2023-03-31T19:33:44.793Z,12.34
2023-03-31T19:38:46.520Z,12.43
2023-03-31T19:43:48.970Z,12.47
2023-03-31T19:48:51.207Z,12.45
2023-03-31T19:53:53.617Z,12.41
2023-03-31T19:58:55.395Z,12.50
2023-03-31T20:03:57.524Z,12.36
2023-03-31T20:09:00.773Z,12.45
2023-03-31T20:14:03.598Z,12.40
2023-03-31T20:19:06.323Z,12.34
2023-03-31T20:24:08.446Z,12.43
2023-03-31T20:29:10.661Z,12.45
2023-03-31T20:34:16.852Z,12.39
2023-03-31T20:39:19.904Z,12.27
2023-03-31T20:44:21.916Z,12.33
2023-03-31T20:49:23.567Z,12.33
2023-03-31T20:54:25.215Z,12.31
2023-03-31T20:59:27.131Z,12.21
2023-03-31T21:04:28.775Z,12.28
2023-03-31T21:09:31.027Z,12.19
2023-03-31T21:14:33.082Z,12.19
2023-03-31T21:19:34.698Z,12.26
2023-03-31T21:24:36.490Z,12.25
2023-03-31T21:29:38.180Z,12.12
2023-03-31T21:34:39.851Z,12.21
2023-03-31T21:39:41.426Z,12.14
2023-03-31T21:44:43.613Z,12.12
2023-03-31T21:49:45.304Z,12.11
2023-03-31T21:54:47.127Z,12.16
2023-03-31T21:59:48.741Z,12.17
2023-03-31T22:04:50.862Z,12.07
2023-03-31T22:09:52.609Z,11.97
2023-03-31T22:14:54.557Z,12.10
2023-03-31T22:19:56.933Z,12.01
2023-03-31T22:24:58.550Z,11.92
2023-03-31T22:30:00.590Z,12.02
2023-03-31T22:35:02.215Z,11.98
2023-03-31T22:40:04.726Z,12.01
2023-03-31T22:45:06.957Z,12.03
2023-03-31T22:50:09.955Z,11.85
2023-03-31T22:55:11.652Z,11.92
2023-03-31T23:00:13.869Z,11.73
2023-03-31T23:05:15.733Z,11.69
2023-03-31T23:10:17.501Z,11.76
2023-03-31T23:15:19.117Z,11.92
2023-03-31T23:20:21.358Z,11.83
2023-03-31T23:25:23.037Z,11.83
2023-03-31T23:30:25.081Z,11.93
2023-03-31T23:35:27.283Z,11.86
2023-03-31T23:40:28.880Z,11.95
2023-03-31T23:45:30.668Z,11.95
2023-03-31T23:50:33.896Z,12.02
2023-03-31T23:55:35.755Z,11.73
